Time;durP1;ratioP1;P1;durP2;ratioP2;P2;SDS_P1;SDS_P2;PMS_P1;PMS_P2;Temp;Humidity;BMP_temperature;BMP_pressure;BME280_temperature;BME280_humidity;BME280_pressure;Samples;Min_cycle;Max_cycle;Signal;HPM_P1;HPM_P2
2022/06/10 00:02:17;;;;;;;4.43;4.05;;;14.40;99.90;;;;;;5032308;28;20206;-92
2022/06/10 00:04:55;;;;;;;4.47;4.07;;;14.40;99.90;;;;;;5032131;28;20213;-91
2022/06/10 00:07:35;;;;;;;4.35;4.05;;;14.40;99.90;;;;;;5032679;28;20207;-92
2022/06/10 00:10:05;;;;;;;4.97;4.57;;;14.40;99.90;;;;;;5032333;28;20194;-92
2022/06/10 00:12:33;;;;;;;5.35;4.85;;;14.40;99.90;;;;;;5032465;28;20257;-92
2022/06/10 00:15:04;;;;;;;4.68;4.28;;;14.50;99.90;;;;;;5035190;28;20234;-93
2022/06/10 00:17:33;;;;;;;4.47;4.07;;;14.50;99.90;;;;;;5036097;28;20230;-92
2022/06/10 00:20:03;;;;;;;5.60;5.10;;;14.50;99.90;;;;;;5035718;28;20226;-92
2022/06/10 00:22:32;;;;;;;5.28;4.32;;;14.50;99.90;;;;;;5035989;28;20256;-92
2022/06/10 00:25:00;;;;;;;4.53;4.13;;;14.50;99.90;;;;;;5035623;28;20225;-92
2022/06/10 00:27:29;;;;;;;4.88;4.35;;;14.50;99.90;;;;;;5036175;28;20202;-92
2022/06/10 00:29:58;;;;;;;5.20;4.72;;;14.50;99.90;;;;;;5035677;28;20226;-91
2022/06/10 00:32:28;;;;;;;4.78;4.20;;;14.50;99.90;;;;;;5035797;28;20234;-92
2022/06/10 00:34:56;;;;;;;4.50;4.20;;;14.50;99.90;;;;;;5035251;28;20229;-92
2022/06/10 00:37:25;;;;;;;5.05;4.65;;;14.50;99.90;;;;;;5034962;28;20206;-91
2022/06/10 00:39:53;;;;;;;5.22;4.82;;;14.50;99.90;;;;;;5035726;28;20223;-91
2022/06/10 00:42:22;;;;;;;4.63;4.05;;;14.40;99.90;;;;;;5035698;28;20233;-93
2022/06/10 00:44:53;;;;;;;4.65;4.22;;;14.40;99.90;;;;;;5035183;28;20230;-91
2022/06/10 00:47:25;;;;;;;6.38;5.07;;;14.40;99.90;;;;;;5035546;28;20198;-91
2022/06/10 00:49:58;;;;;;;4.65;4.13;;;14.40;99.90;;;;;;5035234;28;20222;-91
2022/06/10 00:52:30;;;;;;;5.35;4.78;;;14.40;99.90;;;;;;5035009;28;20318;-92
2022/06/10 00:54:59;;;;;;;6.78;4.20;;;14.40;99.90;;;;;;5035655;28;20214;-90
2022/06/10 00:57:31;;;;;;;4.43;4.13;;;14.40;99.90;;;;;;5034970;28;20256;-91
2022/06/10 01:00:04;;;;;;;5.25;4.85;;;14.30;99.90;;;;;;5034773;28;20274;-89
2022/06/10 01:02:35;;;;;;;5.40;4.97;;;14.30;99.90;;;;;;5035012;28;20225;-90
2022/06/10 01:05:10;;;;;;;5.25;4.80;;;14.30;99.90;;;;;;5034785;28;20276;-90
2022/06/10 01:07:41;;;;;;;5.43;4.88;;;14.20;99.90;;;;;;5035286;28;20209;-91
2022/06/10 01:10:13;;;;;;;5.28;4.72;;;14.20;99.90;;;;;;5034964;28;20203;-91
2022/06/10 01:12:54;;;;;;;4.85;4.45;;;14.20;99.90;;;;;;5034738;28;20214;-91
2022/06/10 01:15:37;;;;;;;7.97;5.13;;;14.20;99.90;;;;;;5035144;28;20210;-91
2022/06/10 01:18:21;;;;;;;5.65;4.47;;;14.20;99.90;;;;;;5034575;28;20226;-91
2022/06/10 01:21:07;;;;;;;5.43;4.90;;;14.20;99.90;;;;;;5034394;28;20284;-91
2022/06/10 01:24:14;;;;;;;5.85;5.30;;;14.20;99.90;;;;;;5034547;28;20260;-91
2022/06/10 01:30:43;;;;;;;5.72;5.25;;;14.20;99.90;;;;;;4993036;28;20200;-91
2022/06/10 01:33:21;;;;;;;5.65;5.15;;;14.10;99.90;;;;;;5034912;28;20205;-90
2022/06/10 01:36:01;;;;;;;5.43;5.00;;;14.10;99.90;;;;;;5034818;28;20214;-91
2022/06/10 01:38:38;;;;;;;5.45;4.95;;;14.10;99.90;;;;;;5034432;28;20227;-90
2022/06/10 01:41:15;;;;;;;6.57;5.97;;;14.10;99.90;;;;;;5033930;28;20242;-91
2022/06/10 01:43:54;;;;;;;4.45;4.15;;;14.10;99.90;;;;;;5034590;28;20233;-91
2022/06/10 01:46:30;;;;;;;6.07;4.97;;;14.10;99.90;;;;;;5037057;28;20210;-90
2022/06/10 01:49:09;;;;;;;5.82;5.28;;;14.10;99.90;;;;;;5038990;28;20222;-90
2022/06/10 01:51:46;;;;;;;5.43;5.03;;;14.10;99.90;;;;;;5038581;28;20199;-91
2022/06/10 01:54:31;;;;;;;5.38;4.88;;;14.10;99.90;;;;;;5043276;28;20252;-90
2022/06/10 01:57:07;;;;;;;6.95;5.72;;;14.10;99.90;;;;;;5034905;28;20198;-90
2022/06/10 01:59:40;;;;;;;4.97;4.68;;;14.10;99.90;;;;;;5035860;28;20281;-91
2022/06/10 02:02:12;;;;;;;5.63;5.22;;;14.10;99.90;;;;;;5033907;28;20230;-91
2022/06/10 02:04:47;;;;;;;5.82;5.30;;;14.10;99.90;;;;;;5034259;28;20207;-90
2022/06/10 02:07:19;;;;;;;5.53;5.13;;;14.10;99.90;;;;;;5036349;28;20237;-91
2022/06/10 02:09:51;;;;;;;5.03;4.63;;;14.10;99.90;;;;;;5038374;28;20218;-90
2022/06/10 02:12:24;;;;;;;7.40;6.18;;;14.10;99.90;;;;;;5037787;28;20241;-91
2022/06/10 02:14:58;;;;;;;6.07;5.07;;;14.10;99.90;;;;;;5042728;28;20202;-91
2022/06/10 02:17:30;;;;;;;14.85;5.53;;;14.10;99.90;;;;;;5036945;28;20213;-91
2022/06/10 02:20:01;;;;;;;5.65;5.15;;;14.10;99.90;;;;;;5034126;28;20314;-91
2022/06/10 02:22:37;;;;;;;18.63;5.57;;;14.00;99.90;;;;;;5033190;28;20230;-89
2022/06/10 02:25:10;;;;;;;5.50;5.07;;;14.10;99.90;;;;;;5033447;28;20230;-90
2022/06/10 02:27:43;;;;;;;5.90;5.40;;;14.10;99.90;;;;;;5033318;28;20210;-91
2022/06/10 02:30:18;;;;;;;6.30;5.53;;;14.10;99.90;;;;;;5033561;28;20294;-90
2022/06/10 02:32:47;;;;;;;13.20;5.60;;;14.00;99.90;;;;;;5033519;28;20213;-89
2022/06/10 02:35:19;;;;;;;7.57;6.40;;;14.10;99.90;;;;;;5033568;28;20241;-90
2022/06/10 02:37:55;;;;;;;5.50;5.10;;;14.10;99.90;;;;;;5032312;28;20203;-92
2022/06/10 02:40:29;;;;;;;8.82;5.38;;;14.00;99.90;;;;;;5032428;28;20242;-90
2022/06/10 02:43:08;;;;;;;5.55;5.05;;;14.00;99.90;;;;;;5033871;28;20213;-90
2022/06/10 02:45:46;;;;;;;6.05;5.55;;;14.00;99.90;;;;;;5033283;28;20210;-90
2022/06/10 02:48:22;;;;;;;7.40;5.75;;;14.00;99.90;;;;;;5032845;28;20232;-90
2022/06/10 02:50:52;;;;;;;5.40;5.00;;;14.00;99.90;;;;;;5033020;28;20271;-90
2022/06/10 02:53:20;;;;;;;5.82;5.30;;;14.00;99.90;;;;;;5033116;28;20206;-91
2022/06/10 02:55:49;;;;;;;5.78;5.20;;;14.00;99.90;;;;;;5033445;28;20206;-91
2022/06/10 03:01:22;;;;;;;4.90;4.50;;;14.00;99.90;;;;;;5032853;28;20218;-90
2022/06/10 03:04:16;;;;;;;5.75;4.90;;;14.00;99.90;;;;;;5035150;28;20210;-90
2022/06/10 03:07:07;;;;;;;6.70;5.20;;;14.00;99.90;;;;;;5035635;28;20237;-89
2022/06/10 03:09:46;;;;;;;5.00;4.60;;;14.00;99.90;;;;;;5033419;28;20226;-90
2022/06/10 03:12:24;;;;;;;5.28;4.60;;;14.00;99.90;;;;;;5032801;28;20233;-91
2022/06/10 03:15:03;;;;;;;5.53;4.90;;;14.00;99.90;;;;;;5032835;28;20202;-90
2022/06/10 03:17:41;;;;;;;11.07;5.05;;;14.00;99.90;;;;;;5033191;28;20232;-90
2022/06/10 03:20:19;;;;;;;4.57;4.25;;;14.00;99.90;;;;;;5032638;28;20256;-91
2022/06/10 03:23:04;;;;;;;4.47;4.18;;;14.00;99.90;;;;;;5033404;28;20202;-90
2022/06/10 03:25:39;;;;;;;5.78;5.10;;;14.00;99.90;;;;;;5032572;28;20210;-91
2022/06/10 03:28:20;;;;;;;4.95;4.55;;;14.00;99.90;;;;;;5032889;28;20225;-91
2022/06/10 03:30:54;;;;;;;5.18;4.78;;;13.90;99.90;;;;;;5032429;28;20257;-90
2022/06/10 03:33:30;;;;;;;5.47;5.07;;;13.90;99.90;;;;;;5033039;28;20209;-90
2022/06/10 03:36:04;;;;;;;5.20;4.63;;;13.90;99.90;;;;;;5032748;28;20237;-91
2022/06/10 03:38:39;;;;;;;5.05;4.65;;;13.90;99.90;;;;;;5032857;28;20226;-90
2022/06/10 03:41:09;;;;;;;4.43;4.13;;;13.90;99.90;;;;;;5032078;28;20226;-90
2022/06/10 03:43:40;;;;;;;5.63;5.13;;;13.90;99.90;;;;;;5032264;28;20406;-91
2022/06/10 03:46:15;;;;;;;5.32;4.82;;;13.90;99.90;;;;;;5032227;28;20249;-90
2022/06/10 03:48:49;;;;;;;4.88;4.47;;;13.90;99.90;;;;;;5034373;28;20234;-90
2022/06/10 03:51:19;;;;;;;8.50;5.78;;;13.90;99.90;;;;;;5036323;28;20206;-89
2022/06/10 03:53:49;;;;;;;9.18;4.85;;;13.90;99.90;;;;;;5036051;28;20210;-90
2022/06/10 03:56:22;;;;;;;6.00;5.30;;;14.00;99.90;;;;;;5035925;28;20214;-90
2022/06/10 03:58:51;;;;;;;5.20;4.80;;;14.00;99.90;;;;;;5035731;28;20226;-91
2022/06/10 04:01:20;;;;;;;5.47;5.07;;;14.00;99.90;;;;;;5036075;28;20218;-91
2022/06/10 04:03:48;;;;;;;6.38;5.38;;;14.00;99.90;;;;;;5036133;28;20233;-90
2022/06/10 04:06:18;;;;;;;5.00;4.60;;;14.00;99.90;;;;;;5036099;28;20217;-90
2022/06/10 04:09:08;;;;;;;5.20;4.80;;;14.00;99.90;;;;;;5035813;28;20228;-90
2022/06/10 04:11:36;;;;;;;5.20;4.80;;;14.00;99.90;;;;;;5035823;28;20194;-90
2022/06/10 04:14:05;;;;;;;5.38;4.93;;;14.00;99.90;;;;;;5036272;28;20302;-90
2022/06/10 04:16:33;;;;;;;5.57;5.07;;;14.10;99.90;;;;;;5035587;28;20241;-89
2022/06/10 04:19:02;;;;;;;5.82;5.32;;;14.10;99.90;;;;;;5035660;28;20242;-90
2022/06/10 04:21:30;;;;;;;5.88;4.82;;;14.10;99.90;;;;;;5035199;28;20226;-90
2022/06/10 04:23:59;;;;;;;6.93;6.00;;;14.10;99.90;;;;;;5035402;28;20273;-89
2022/06/10 04:26:29;;;;;;;6.28;5.68;;;14.10;99.90;;;;;;5035360;28;20241;-90
2022/06/10 04:28:57;;;;;;;5.22;4.82;;;14.10;99.90;;;;;;5035866;28;20225;-90
2022/06/10 04:31:26;;;;;;;5.97;5.50;;;14.10;99.90;;;;;;5035364;28;20206;-90
2022/06/10 04:33:54;;;;;;;8.30;5.68;;;14.10;99.90;;;;;;5035160;28;20207;-90
2022/06/10 04:36:23;;;;;;;6.63;6.03;;;14.10;99.90;;;;;;5035337;28;20218;-90
2022/06/10 04:38:52;;;;;;;6.93;6.35;;;14.10;99.90;;;;;;5035231;28;20233;-90
2022/06/10 04:41:20;;;;;;;6.32;5.82;;;14.10;99.90;;;;;;5034658;28;20215;-90
2022/06/10 04:43:50;;;;;;;6.35;5.75;;;14.20;99.90;;;;;;5035180;28;20217;-90
2022/06/10 04:46:27;;;;;;;12.27;5.38;;;14.20;99.90;;;;;;5035204;28;20210;-89
2022/06/10 04:48:57;;;;;;;5.45;4.97;;;14.20;99.90;;;;;;5035265;28;20260;-89
2022/06/10 04:51:25;;;;;;;4.82;4.43;;;14.20;99.90;;;;;;5034680;28;20203;-89
2022/06/10 04:53:53;;;;;;;5.47;5.07;;;14.20;99.90;;;;;;5035037;28;20230;-89
2022/06/10 04:56:22;;;;;;;6.70;5.93;;;14.20;99.90;;;;;;5035179;28;20206;-89
2022/06/10 04:58:52;;;;;;;12.63;5.05;;;14.20;99.90;;;;;;5035042;28;20234;-90
2022/06/10 05:01:20;;;;;;;5.70;5.20;;;14.10;99.90;;;;;;5034293;28;20222;-89
2022/06/10 05:03:53;;;;;;;6.18;5.57;;;14.10;99.90;;;;;;5035314;28;20272;-90
2022/06/10 05:06:28;;;;;;;5.45;4.95;;;14.10;99.90;;;;;;5034857;28;20202;-90
2022/06/10 05:08:57;;;;;;;5.10;4.70;;;14.20;99.90;;;;;;5034613;28;20261;-90
2022/06/10 05:11:25;;;;;;;5.32;4.90;;;14.10;99.90;;;;;;5034797;28;20227;-88
2022/06/10 05:13:56;;;;;;;5.30;4.80;;;14.20;99.90;;;;;;5034592;28;20207;-89
2022/06/10 05:16:28;;;;;;;5.50;5.00;;;14.20;99.90;;;;;;5035135;28;20293;-89
2022/06/10 05:18:57;;;;;;;5.53;5.03;;;14.20;99.90;;;;;;5034174;28;20226;-90
2022/06/10 05:21:25;;;;;;;6.18;5.57;;;14.10;99.90;;;;;;5034282;28;20232;-90
2022/06/10 05:23:54;;;;;;;6.22;5.65;;;14.10;99.90;;;;;;5034807;28;20213;-90
2022/06/10 05:26:22;;;;;;;6.07;5.45;;;14.10;99.90;;;;;;5034660;28;20279;-90
2022/06/10 05:28:51;;;;;;;6.53;5.95;;;14.10;99.90;;;;;;5034386;28;20313;-89
2022/06/10 05:31:21;;;;;;;5.30;4.88;;;14.10;99.90;;;;;;5034372;28;20238;-89
2022/06/10 05:36:37;;;;;;;5.20;4.80;;;14.00;99.90;;;;;;5034692;28;20213;-90
2022/06/10 05:39:08;;;;;;;5.93;5.22;;;14.00;99.90;;;;;;5034774;28;20276;-91
2022/06/10 05:44:25;;;;;;;5.03;4.53;;;14.00;99.90;;;;;;5033940;28;20202;-90
2022/06/10 05:46:56;;;;;;;5.43;5.03;;;14.00;99.90;;;;;;5034359;28;20206;-91
2022/06/10 05:49:43;;;;;;;5.28;4.82;;;14.00;99.90;;;;;;5034213;28;20230;-91
2022/06/10 05:52:13;;;;;;;5.30;4.90;;;14.00;99.90;;;;;;5033793;28;20202;-90
2022/06/10 05:54:44;;;;;;;7.00;6.30;;;14.00;99.90;;;;;;5034260;28;20202;-90
2022/06/10 05:57:16;;;;;;;5.40;4.88;;;14.00;99.90;;;;;;5033563;28;20262;-90
2022/06/10 05:59:47;;;;;;;6.40;5.90;;;14.00;99.90;;;;;;5033723;28;20266;-91
2022/06/10 06:02:17;;;;;;;6.40;5.90;;;14.10;99.90;;;;;;5033849;28;20284;-91
2022/06/10 06:05:33;;;;;;;6.88;6.28;;;14.10;99.90;;;;;;5033373;28;20215;-90
2022/06/10 06:08:29;;;;;;;4.97;4.38;;;14.10;99.90;;;;;;5033823;28;20238;-90
2022/06/10 06:11:37;;;;;;;4.57;4.28;;;14.10;99.90;;;;;;5032471;28;20206;-91
2022/06/10 06:17:33;;;;;;;4.80;4.47;;;14.10;99.90;;;;;;5011131;28;20208;-91
2022/06/10 06:20:23;;;;;;;4.65;4.35;;;14.20;99.90;;;;;;5040842;28;20257;-91
2022/06/10 06:23:47;;;;;;;5.18;4.78;;;14.20;99.90;;;;;;5040537;28;20272;-91
2022/06/10 06:26:35;;;;;;;7.45;4.68;;;14.20;99.90;;;;;;5036967;28;20231;-91
2022/06/10 06:32:01;;;;;;;5.35;4.85;;;14.30;99.90;;;;;;5050537;28;20244;-91
2022/06/10 06:37:24;;;;;;;6.03;4.20;;;14.30;99.90;;;;;;5049863;28;20218;-91
2022/06/10 06:40:14;;;;;;;5.50;5.03;;;14.30;99.90;;;;;;5059103;28;20229;-91
2022/06/10 06:43:35;;;;;;;5.10;4.70;;;14.30;99.90;;;;;;5057167;28;20221;-91
2022/06/10 06:54:57;;;;;;;8.57;4.75;;;14.40;99.90;;;;;;4851278;29;20211;-91
2022/06/10 07:32:33;;;;;;;3.65;3.35;;;14.50;99.90;;;;;;5050511;28;20244;-90
2022/06/10 07:42:11;;;;;;;3.30;3.10;;;14.50;99.90;;;;;;5057718;22;20271;-91
2022/06/10 07:45:06;;;;;;;3.50;3.20;;;14.50;99.90;;;;;;5051010;28;20212;-91
2022/06/10 07:47:34;;;;;;;3.65;3.35;;;14.50;99.90;;;;;;5052377;28;20213;-90
2022/06/10 07:50:04;;;;;;;3.63;3.33;;;14.50;99.90;;;;;;5032779;28;20272;-90
2022/06/10 07:53:10;;;;;;;4.13;3.75;;;14.50;99.90;;;;;;5033601;28;20213;-90
2022/06/10 07:55:41;;;;;;;4.13;3.72;;;14.60;99.90;;;;;;5032045;28;20221;-90
2022/06/10 07:58:13;;;;;;;3.05;2.85;;;14.60;99.90;;;;;;5031985;28;20318;-91
2022/06/10 08:00:44;;;;;;;6.72;3.40;;;14.60;99.90;;;;;;5032058;28;20206;-90
2022/06/10 08:03:13;;;;;;;35.72;4.25;;;14.60;99.90;;;;;;5032255;28;20253;-90
2022/06/10 08:05:45;;;;;;;4.35;4.00;;;14.60;99.90;;;;;;5032231;28;20206;-90
2022/06/10 08:08:16;;;;;;;4.97;4.55;;;14.60;99.90;;;;;;5031686;28;20245;-91
2022/06/10 08:11:19;;;;;;;4.68;4.28;;;14.60;99.90;;;;;;5031883;28;20293;-90
2022/06/10 08:13:49;;;;;;;4.75;4.30;;;14.70;99.90;;;;;;5032672;28;20202;-90
2022/06/10 08:16:39;;;;;;;4.82;4.32;;;14.60;99.90;;;;;;5032506;28;20236;-89
2022/06/10 08:22:35;;;;;;;5.10;4.70;;;14.70;99.90;;;;;;5031931;28;20289;-90
2022/06/10 08:25:46;;;;;;;4.65;4.30;;;14.70;99.90;;;;;;5031771;28;20245;-89
2022/06/10 08:28:29;;;;;;;5.13;4.72;;;14.80;99.90;;;;;;4971324;28;20225;-90
2022/06/10 08:30:58;;;;;;;5.10;4.70;;;14.80;99.90;;;;;;4970841;28;20208;-90
2022/06/10 08:33:28;;;;;;;6.18;5.38;;;14.80;99.90;;;;;;4971457;28;20205;-89
2022/06/10 08:35:57;;;;;;;5.13;4.72;;;14.80;99.90;;;;;;4973370;28;20216;-90
2022/06/10 08:38:53;;;;;;;4.50;4.20;;;14.80;99.90;;;;;;4974462;28;20251;-90
2022/06/10 08:41:32;;;;;;;4.20;3.90;;;14.80;99.90;;;;;;4972658;28;20250;-90
2022/06/10 09:00:37;;;;;;;4.50;4.10;;;14.90;99.90;;;;;;4990375;28;20214;-90
2022/06/10 09:13:48;;;;;;;4.32;4.00;;;14.90;99.90;;;;;;4841563;29;20297;-90
2022/06/10 09:20:24;;;;;;;4.05;3.75;;;14.90;99.90;;;;;;5074467;23;20248;-90
2022/06/10 09:27:04;;;;;;;4.88;4.40;;;15.00;99.90;;;;;;5043255;28;20209;-91
2022/06/10 09:29:44;;;;;;;4.43;4.13;;;15.00;99.90;;;;;;5049936;28;20226;-90
2022/06/10 09:32:21;;;;;;;6.45;5.85;;;15.00;99.90;;;;;;5054300;28;20216;-90
2022/06/10 09:35:00;;;;;;;5.47;5.00;;;15.00;99.90;;;;;;5054357;28;20205;-90
2022/06/10 09:37:37;;;;;;;5.78;5.28;;;15.00;99.90;;;;;;5054589;28;20248;-90
2022/06/10 09:43:44;;;;;;;5.25;4.85;;;15.00;99.90;;;;;;5054641;28;20201;-90
2022/06/10 09:46:53;;;;;;;7.45;5.85;;;15.10;99.90;;;;;;5053561;28;20213;-90
2022/06/10 09:50:03;;;;;;;6.00;5.55;;;15.10;99.90;;;;;;5054253;28;20221;-89
2022/06/10 09:56:54;;;;;;;6.20;5.70;;;15.10;99.90;;;;;;5006315;28;20320;-91
2022/06/10 10:00:17;;;;;;;6.95;6.25;;;15.20;99.90;;;;;;5053783;28;20225;-90
2022/06/10 10:03:46;;;;;;;6.50;5.95;;;15.20;99.90;;;;;;4915878;29;20207;-91
2022/06/10 10:10:19;;;;;;;7.13;6.45;;;15.20;99.90;;;;;;4970286;28;20220;-91
2022/06/10 10:13:45;;;;;;;8.25;7.55;;;15.30;99.90;;;;;;4972867;28;20224;-90
2022/06/10 10:17:06;;;;;;;;;;;;;;;;;;;;;
2022/06/10 10:20:16;;;;;;;7.05;6.50;;;15.30;99.90;;;;;;4953105;28;20229;-91
2022/06/10 10:23:28;;;;;;;8.25;7.55;;;15.30;99.90;;;;;;4953303;29;20295;-91
2022/06/10 10:26:25;;;;;;;9.30;8.38;;;15.40;99.90;;;;;;4944600;29;20217;-91
2022/06/10 10:29:43;;;;;;;7.38;6.40;;;15.50;99.90;;;;;;5008230;23;20299;-90
2022/06/10 10:35:52;;;;;;;8.70;7.88;;;15.50;99.90;;;;;;5026331;28;20210;-91
2022/06/10 10:53:27;;;;;;;7.47;6.85;;;15.50;99.90;;;;;;5285386;22;20234;-92
2022/06/10 10:56:00;;;;;;;7.68;7.05;;;15.60;99.90;;;;;;5068276;28;20232;-93
2022/06/10 10:58:41;;;;;;;7.40;6.63;;;15.50;99.90;;;;;;5055648;28;20267;-92
2022/06/10 11:04:06;;;;;;;8.80;7.53;;;15.50;99.90;;;;;;5052189;28;20232;-93
2022/06/10 11:10:24;;;;;;;8.60;7.60;;;15.60;99.90;;;;;;5039220;28;20284;-92
2022/06/10 11:13:22;;;;;;;8.50;7.60;;;15.60;99.90;;;;;;5049035;28;20269;-93
2022/06/10 11:27:26;;;;;;;8.13;7.45;;;15.80;99.90;;;;;;4922132;28;20215;-93
2022/06/10 11:35:43;;;;;;;8.07;7.28;;;15.90;99.90;;;;;;5031046;28;20305;-92
2022/06/10 11:46:07;;;;;;;11.48;7.72;;;16.00;99.90;;;;;;4926831;29;20236;-90
2022/06/10 11:52:03;;;;;;;;;;;;;;;;;;;;;
2022/06/10 11:54:53;;;;;;;16.25;7.35;;;16.00;99.90;;;;;;5019763;28;20199;-94
2022/06/10 12:01:47;;;;;;;7.18;6.50;;;16.10;99.90;;;;;;4977267;28;20202;-91
2022/06/10 12:29:48;;;;;;;8.75;7.90;;;16.40;99.90;;;;;;5701081;22;20294;-87
2022/06/10 12:32:26;;;;;;;7.53;6.90;;;16.40;99.90;;;;;;5045376;28;20211;-89
2022/06/10 12:35:00;;;;;;;7.10;6.50;;;16.40;99.90;;;;;;5036368;28;20307;-87
2022/06/10 12:37:42;;;;;;;7.43;6.72;;;16.40;99.90;;;;;;5037044;28;20202;-87
2022/06/10 12:40:18;;;;;;;8.25;6.70;;;16.40;99.90;;;;;;5015927;28;20215;-86
2022/06/10 12:42:50;;;;;;;9.98;6.85;;;16.30;99.90;;;;;;5016520;28;20261;-87
2022/06/10 12:45:27;;;;;;;7.88;7.15;;;16.30;99.90;;;;;;5016297;28;20215;-85
2022/06/10 12:48:00;;;;;;;8.05;7.25;;;16.30;99.90;;;;;;5016065;28;20222;-86
2022/06/10 12:50:32;;;;;;;7.82;7.07;;;16.30;99.90;;;;;;5029439;28;20206;-87
2022/06/10 12:53:23;;;;;;;7.60;6.90;;;16.30;99.90;;;;;;5036218;28;20226;-87
2022/06/10 12:55:53;;;;;;;7.63;6.88;;;16.30;99.90;;;;;;5035678;28;20194;-87
2022/06/10 12:58:43;;;;;;;8.00;7.20;;;16.30;99.90;;;;;;5035732;28;20230;-87
2022/06/10 13:01:19;;;;;;;8.55;7.75;;;16.30;99.90;;;;;;5035402;28;20293;-87
2022/06/10 13:03:49;;;;;;;6.78;6.13;;;16.30;99.90;;;;;;5035306;28;20210;-86
2022/06/10 13:06:48;;;;;;;6.80;6.18;;;16.30;99.90;;;;;;5034800;28;20214;-87
2022/06/10 13:09:31;;;;;;;7.25;6.65;;;16.30;99.90;;;;;;5035691;28;20234;-87
2022/06/10 13:12:01;;;;;;;7.47;6.82;;;16.40;99.90;;;;;;5035251;28;20206;-86
2022/06/10 13:14:42;;;;;;;8.82;7.85;;;16.40;99.90;;;;;;5035546;28;20210;-87
2022/06/10 13:17:41;;;;;;;6.72;6.13;;;16.40;99.90;;;;;;5022365;28;20198;-87
2022/06/10 13:20:24;;;;;;;6.07;5.57;;;16.40;99.90;;;;;;5035305;28;20222;-86
2022/06/10 13:23:15;;;;;;;6.40;5.80;;;16.50;99.90;;;;;;5035118;28;20256;-86
2022/06/10 13:25:46;;;;;;;6.03;5.63;;;16.60;99.90;;;;;;5030003;28;20222;-86
2022/06/10 13:28:24;;;;;;;6.22;5.65;;;16.60;99.90;;;;;;5035061;28;20221;-86
2022/06/10 13:31:05;;;;;;;7.22;6.55;;;16.70;99.90;;;;;;5035105;28;20234;-86
2022/06/10 13:33:33;;;;;;;7.35;6.45;;;16.80;99.90;;;;;;5034782;28;20210;-87
2022/06/10 13:36:09;;;;;;;6.93;6.10;;;16.90;99.90;;;;;;5034269;28;20198;-86
2022/06/10 13:38:38;;;;;;;6.13;5.60;;;17.00;99.90;;;;;;5035282;28;20233;-87
2022/06/10 13:44:06;;;;;;;4.95;4.55;;;17.30;99.90;;;;;;5034772;28;20226;-86
2022/06/10 13:46:35;;;;;;;5.20;4.80;;;17.40;99.90;;;;;;5034448;28;20218;-85
2022/06/10 13:49:08;;;;;;;5.72;4.78;;;17.50;99.90;;;;;;5031107;28;20223;-86
2022/06/10 13:51:42;;;;;;;5.85;5.32;;;17.70;99.90;;;;;;5030987;28;20210;-86
2022/06/10 13:54:21;;;;;;;7.88;4.90;;;17.80;99.90;;;;;;5018506;28;20202;-87
2022/06/10 13:56:51;;;;;;;5.38;4.88;;;18.00;99.90;;;;;;5034757;28;20237;-87
2022/06/10 13:59:29;;;;;;;5.15;4.65;;;18.20;99.90;;;;;;5019944;28;20219;-86
2022/06/10 14:02:01;;;;;;;5.50;5.07;;;18.40;99.90;;;;;;5014318;28;20206;-86
2022/06/10 14:04:32;;;;;;;6.13;4.55;;;18.60;99.90;;;;;;5018233;28;20202;-86
2022/06/10 14:07:07;;;;;;;4.78;4.38;;;18.70;99.90;;;;;;5017776;28;20243;-87
2022/06/10 14:09:38;;;;;;;5.53;4.65;;;18.70;99.90;;;;;;5014661;28;20250;-86
2022/06/10 14:12:20;;;;;;;4.40;4.10;;;18.90;99.90;;;;;;5023467;28;20211;-87
2022/06/10 14:14:49;;;;;;;4.00;3.53;;;19.00;99.90;;;;;;5029139;28;20272;-86
2022/06/10 14:17:21;;;;;;;4.20;3.83;;;19.20;99.90;;;;;;5033984;28;20210;-86
2022/06/10 14:19:53;;;;;;;5.20;4.55;;;19.20;99.90;;;;;;5030664;28;20228;-87
2022/06/10 14:22:29;;;;;;;4.60;4.18;;;19.20;99.90;;;;;;5019195;28;20198;-87
2022/06/10 14:25:17;;;;;;;4.57;4.20;;;19.20;99.90;;;;;;5025037;28;20203;-87
2022/06/10 14:28:15;;;;;;;4.60;4.28;;;19.20;99.90;;;;;;5018395;28;20195;-87
2022/06/10 14:30:52;;;;;;;5.20;4.07;;;19.20;99.90;;;;;;5030794;28;20249;-86
2022/06/10 14:33:27;;;;;;;4.07;3.75;;;19.10;99.90;;;;;;5027221;28;20206;-87
2022/06/10 14:36:13;;;;;;;4.15;3.72;;;19.20;99.90;;;;;;5023165;28;20245;-87
2022/06/10 14:38:45;;;;;;;5.10;4.03;;;19.20;99.90;;;;;;5019668;28;20215;-87
2022/06/10 14:41:23;;;;;;;5.10;4.13;;;19.30;99.90;;;;;;5026006;28;20195;-87
2022/06/10 14:44:02;;;;;;;5.97;4.22;;;19.30;99.90;;;;;;5031993;28;20203;-87
2022/06/10 14:46:32;;;;;;;3.92;3.40;;;19.50;99.90;;;;;;5025236;28;20249;-87
2022/06/10 14:49:21;;;;;;;4.30;3.53;;;19.60;99.90;;;;;;5028369;28;20222;-87
2022/06/10 14:51:51;;;;;;;3.90;3.60;;;19.80;99.90;;;;;;5025173;28;20229;-87
2022/06/10 14:54:20;;;;;;;3.78;3.30;;;20.10;99.90;;;;;;5015285;28;20200;-87
2022/06/10 14:56:50;;;;;;;3.58;3.30;;;20.20;99.90;;;;;;5024775;28;20245;-87
2022/06/10 14:59:24;;;;;;;4.28;3.65;;;20.40;99.90;;;;;;5013737;28;20227;-87
2022/06/10 15:02:04;;;;;;;3.60;3.30;;;20.70;99.90;;;;;;5013465;28;20203;-87
2022/06/10 15:04:33;;;;;;;3.65;3.35;;;20.80;99.90;;;;;;5021402;28;20203;-87
2022/06/10 15:07:22;;;;;;;4.20;3.28;;;20.90;99.90;;;;;;5020546;28;20372;-87
2022/06/10 15:09:51;;;;;;;4.25;3.50;;;20.90;99.90;;;;;;5015478;28;20223;-87
2022/06/10 15:12:23;;;;;;;4.68;4.28;;;20.70;99.90;;;;;;5013781;28;20237;-88
2022/06/10 15:14:52;;;;;;;4.20;3.85;;;20.60;99.90;;;;;;5013607;28;20246;-87
2022/06/10 15:17:22;;;;;;;4.38;3.80;;;20.40;99.90;;;;;;5019032;28;20199;-87
2022/06/10 15:19:54;;;;;;;4.25;3.72;;;20.30;99.90;;;;;;5033293;28;20230;-89
2022/06/10 15:22:39;;;;;;;4.03;3.60;;;20.30;99.90;;;;;;5029516;28;20248;-87
2022/06/10 15:25:19;;;;;;;3.65;3.35;;;20.30;99.90;;;;;;5032449;28;20301;-87
2022/06/10 15:27:47;;;;;;;4.75;3.72;;;20.40;99.90;;;;;;5033211;28;20291;-87
2022/06/10 15:30:18;;;;;;;4.15;3.75;;;20.40;99.90;;;;;;5031793;28;20313;-87
2022/06/10 15:32:46;;;;;;;4.15;3.75;;;20.40;99.90;;;;;;5032095;28;20238;-88
2022/06/10 15:41:02;;;;;;;4.38;4.00;;;20.10;99.90;;;;;;5031928;28;20200;-87
2022/06/10 15:43:31;;;;;;;5.20;4.80;;;20.00;99.90;;;;;;5033039;28;20222;-87
2022/06/10 15:46:00;;;;;;;8.95;5.15;;;19.90;99.90;;;;;;5032845;28;20222;-86
2022/06/10 15:48:29;;;;;;;6.60;5.05;;;19.70;99.90;;;;;;5027150;28;20229;-85
2022/06/10 15:50:58;;;;;;;4.65;4.13;;;19.50;99.90;;;;;;5021733;28;20210;-86
2022/06/10 15:53:31;;;;;;;5.57;4.80;;;19.50;99.90;;;;;;5025712;28;20266;-86
2022/06/10 15:58:46;;;;;;;6.03;4.85;;;19.40;99.90;;;;;;5035819;28;20222;-86
2022/06/10 16:01:18;;;;;;;4.63;4.22;;;19.30;99.90;;;;;;5036088;28;20305;-86
2022/06/10 16:03:47;;;;;;;5.85;4.63;;;19.30;99.90;;;;;;5036292;28;20252;-86
2022/06/10 16:06:17;;;;;;;4.47;4.13;;;19.30;99.90;;;;;;5025282;28;20219;-86
2022/06/10 16:08:47;;;;;;;5.53;4.20;;;19.30;99.90;;;;;;5016083;28;20231;-87
2022/06/10 16:11:21;;;;;;;4.03;3.70;;;19.20;99.90;;;;;;5018658;28;20223;-87
2022/06/10 16:13:53;;;;;;;5.80;4.75;;;19.20;99.90;;;;;;5016122;28;20223;-86
2022/06/10 16:16:24;;;;;;;5.43;4.93;;;19.20;99.90;;;;;;5016159;28;20213;-87
2022/06/10 16:18:54;;;;;;;6.03;5.43;;;19.10;99.90;;;;;;5021202;28;20247;-88
2022/06/10 16:21:24;;;;;;;4.72;4.32;;;19.10;99.90;;;;;;5015814;28;20234;-87
2022/06/10 16:23:54;;;;;;;4.57;4.28;;;19.10;99.90;;;;;;5030606;28;20194;-87
2022/06/10 16:26:29;;;;;;;4.55;4.15;;;19.10;99.90;;;;;;5035736;28;20305;-87
2022/06/10 16:29:01;;;;;;;4.93;4.18;;;19.00;99.90;;;;;;5035303;28;20225;-87
2022/06/10 16:31:34;;;;;;;4.45;4.07;;;19.00;99.90;;;;;;5036228;28;20256;-87
2022/06/10 16:34:16;;;;;;;6.00;5.50;;;19.00;99.90;;;;;;5036234;28;20298;-87
2022/06/10 16:36:47;;;;;;;5.35;4.82;;;19.00;99.90;;;;;;5044994;28;20263;-87
2022/06/10 16:39:18;;;;;;;4.50;4.10;;;19.00;99.90;;;;;;5055741;28;20245;-87
2022/06/10 16:41:49;;;;;;;5.18;4.68;;;19.00;99.90;;;;;;5055028;28;20222;-87
2022/06/10 16:44:23;;;;;;;6.43;4.63;;;19.00;99.90;;;;;;5055447;28;20261;-87
2022/06/10 16:46:57;;;;;;;4.75;4.35;;;19.00;99.90;;;;;;5041877;28;20222;-86
2022/06/10 16:49:29;;;;;;;4.40;4.10;;;19.00;99.90;;;;;;5035369;28;20222;-87
2022/06/10 16:52:00;;;;;;;4.88;4.47;;;19.00;99.90;;;;;;5035042;28;20214;-87
2022/06/10 16:54:30;;;;;;;4.03;3.72;;;19.10;99.90;;;;;;5035235;28;20202;-87
2022/06/10 16:57:00;;;;;;;13.15;4.07;;;19.10;99.90;;;;;;5036975;28;20198;-87
2022/06/10 16:59:33;;;;;;;4.35;3.95;;;19.10;99.90;;;;;;5035421;28;20241;-87
2022/06/10 17:02:16;;;;;;;4.25;3.95;;;19.10;99.90;;;;;;5035141;28;20214;-87
2022/06/10 17:04:45;;;;;;;6.55;4.93;;;19.10;99.90;;;;;;5051724;28;20213;-87
2022/06/10 17:07:17;;;;;;;3.78;3.47;;;19.10;99.90;;;;;;5055026;28;20293;-87
2022/06/10 17:09:47;;;;;;;5.40;4.20;;;19.10;99.90;;;;;;5055044;28;20229;-87
2022/06/10 17:12:19;;;;;;;4.43;4.05;;;19.10;99.90;;;;;;5054384;28;20198;-87
2022/06/10 17:14:47;;;;;;;5.53;5.10;;;19.10;99.90;;;;;;5054926;28;20220;-87